createdAt,value
2022-12-23T00:02:09.971Z,23.00
2022-12-23T00:04:37.485Z,26.60
2022-12-23T00:07:04.792Z,24.58
2022-12-23T00:09:34.396Z,25.30
2022-12-23T00:12:01.440Z,25.20
2022-12-23T00:14:28.950Z,23.83
2022-12-23T00:16:56.107Z,23.25
2022-12-23T00:19:23.538Z,19.20
2022-12-23T00:21:50.860Z,21.13
2022-12-23T00:24:18.257Z,18.50
2022-12-23T00:26:47.824Z,18.30
2022-12-23T00:29:15.603Z,11.00
2022-12-23T00:31:49.176Z,12.88
2022-12-23T00:34:16.844Z,11.18
2022-12-23T00:36:43.942Z,11.30
2022-12-23T00:39:13.079Z,11.57
2022-12-23T00:41:40.381Z,11.85
2022-12-23T00:44:07.471Z,11.52
2022-12-23T00:46:35.128Z,12.00
2022-12-23T00:49:02.648Z,13.40
2022-12-23T00:51:30.120Z,12.30
2022-12-23T00:53:57.255Z,11.48
2022-12-23T00:56:27.032Z,12.60
2022-12-23T00:58:54.110Z,10.98
2022-12-23T01:01:21.799Z,11.27
2022-12-23T01:03:49.363Z,10.88
2022-12-23T01:06:19.388Z,10.63
2022-12-23T01:08:48.926Z,11.35
2022-12-23T01:11:16.794Z,11.85
2022-12-23T01:13:43.885Z,14.05
2022-12-23T01:16:17.199Z,14.25
2022-12-23T01:21:12.948Z,14.98
2022-12-23T01:23:40.056Z,12.68
2022-12-23T01:26:08.378Z,13.52
2022-12-23T01:28:38.608Z,13.40
2022-12-23T01:31:10.148Z,12.70
2022-12-23T01:33:37.489Z,13.35
2022-12-23T01:36:13.165Z,12.20
2022-12-23T01:38:40.511Z,11.77
2022-12-23T01:41:11.095Z,11.70
2022-12-23T01:43:51.917Z,12.20
2022-12-23T01:46:21.875Z,11.93
2022-12-23T01:48:52.321Z,12.15
2022-12-23T01:51:27.413Z,12.23
2022-12-23T01:54:00.856Z,13.02
2022-12-23T01:56:36.143Z,13.93
2022-12-23T01:59:12.471Z,13.98
2022-12-23T02:01:39.882Z,15.18
2022-12-23T02:04:24.328Z,14.07
2022-12-23T02:06:52.002Z,11.95
2022-12-23T02:09:28.053Z,13.75
2022-12-23T02:12:01.371Z,14.18
2022-12-23T02:14:47.059Z,13.20
2022-12-23T02:17:52.353Z,12.98
2022-12-23T02:20:50.340Z,16.05
2022-12-23T02:23:42.510Z,14.85
2022-12-23T02:26:31.340Z,21.23
2022-12-23T02:29:17.466Z,23.88
2022-12-23T02:31:53.873Z,23.83
2022-12-23T02:34:35.445Z,20.70
2022-12-23T02:37:06.672Z,22.83
2022-12-23T02:39:43.095Z,21.50
2022-12-23T02:42:32.872Z,19.77
2022-12-23T02:45:23.882Z,20.55
2022-12-23T02:48:13.136Z,19.75
2022-12-23T02:50:43.604Z,16.67
2022-12-23T02:53:26.674Z,17.10
2022-12-23T02:55:56.229Z,14.57
2022-12-23T02:58:30.689Z,14.07
2022-12-23T03:03:35.669Z,15.93
2022-12-23T03:06:15.360Z,16.40
2022-12-23T03:08:44.702Z,17.95
2022-12-23T03:11:15.131Z,22.05
2022-12-23T03:14:01.632Z,21.38
2022-12-23T03:17:12.566Z,17.63
2022-12-23T03:20:22.375Z,16.85
2022-12-23T03:23:03.678Z,17.73
2022-12-23T03:25:45.512Z,21.10
2022-12-23T03:28:19.279Z,17.67
2022-12-23T03:30:52.757Z,18.90
2022-12-23T03:35:54.111Z,15.90
2022-12-23T03:38:26.041Z,15.43
2022-12-23T03:41:02.666Z,15.52
2022-12-23T03:43:52.065Z,14.10
2022-12-23T03:46:41.477Z,13.63
2022-12-23T03:49:20.806Z,13.45
2022-12-23T03:52:03.419Z,9.90
2022-12-23T03:54:49.063Z,9.07
2022-12-23T03:57:21.686Z,8.77
2022-12-23T03:59:50.346Z,9.15
2022-12-23T04:02:35.686Z,6.78
2022-12-23T04:05:26.986Z,9.27
2022-12-23T04:08:05.271Z,7.88
2022-12-23T04:10:33.448Z,6.70
2022-12-23T04:13:02.920Z,8.68
2022-12-23T04:15:33.038Z,7.85
2022-12-23T04:18:00.377Z,7.95
2022-12-23T04:20:27.764Z,10.90
2022-12-23T04:22:55.010Z,9.85
2022-12-23T04:25:22.761Z,10.82
2022-12-23T04:27:49.836Z,9.77
2022-12-23T04:30:17.405Z,9.40
2022-12-23T04:32:47.159Z,9.48
2022-12-23T04:35:16.925Z,8.52
2022-12-23T04:37:44.210Z,8.90
2022-12-23T04:40:14.360Z,8.50
2022-12-23T04:42:43.725Z,8.30
2022-12-23T04:45:13.920Z,10.95
2022-12-23T04:47:41.098Z,11.48
2022-12-23T04:50:15.060Z,11.73
2022-12-23T04:52:43.540Z,9.77
2022-12-23T04:55:11.389Z,9.88
2022-12-23T04:57:38.480Z,9.48
2022-12-23T05:00:06.728Z,8.18
2022-12-23T05:02:33.947Z,9.55
2022-12-23T05:05:01.601Z,10.93
2022-12-23T05:07:31.109Z,9.45
2022-12-23T05:09:58.500Z,12.15
2022-12-23T05:12:25.637Z,8.93
2022-12-23T05:14:53.293Z,9.57
2022-12-23T05:17:20.417Z,9.32
2022-12-23T05:19:47.819Z,9.52
2022-12-23T05:22:15.001Z,12.50
2022-12-23T05:24:42.383Z,10.60
2022-12-23T05:27:09.423Z,6.43
2022-12-23T05:29:37.097Z,6.18
2022-12-23T05:32:04.552Z,6.00
2022-12-23T05:34:34.514Z,8.48
2022-12-23T05:37:01.741Z,5.28
2022-12-23T05:39:31.373Z,6.68
2022-12-23T05:41:58.540Z,7.55
2022-12-23T05:44:26.069Z,6.50
2022-12-23T05:46:55.722Z,3.70
2022-12-23T05:49:23.344Z,6.25
2022-12-23T05:51:50.753Z,6.10
2022-12-23T05:54:18.264Z,8.60
2022-12-23T05:56:48.289Z,6.90
2022-12-23T05:59:16.053Z,7.32
2022-12-23T06:01:43.408Z,5.68
2022-12-23T06:04:13.148Z,6.28
2022-12-23T06:06:40.577Z,7.22
2022-12-23T06:09:10.181Z,7.80
2022-12-23T06:11:37.290Z,6.50
2022-12-23T06:14:04.916Z,6.53
2022-12-23T06:16:32.066Z,5.85
2022-12-23T06:18:59.723Z,5.35
2022-12-23T06:21:29.678Z,7.70
2022-12-23T06:23:57.103Z,6.47
2022-12-23T06:26:24.373Z,9.05
2022-12-23T06:28:52.187Z,6.70
2022-12-23T06:31:19.391Z,7.38
2022-12-23T06:33:49.365Z,8.18
2022-12-23T06:36:16.784Z,6.93
2022-12-23T06:38:46.574Z,5.70
2022-12-23T06:41:13.656Z,7.95
2022-12-23T06:43:41.517Z,7.75
2022-12-23T06:46:08.740Z,6.72
2022-12-23T06:48:36.247Z,8.48
2022-12-23T06:51:07.967Z,6.70
2022-12-23T06:53:35.398Z,11.18
2022-12-23T06:56:03.535Z,8.55
2022-12-23T06:58:34.154Z,7.75
2022-12-23T07:01:03.912Z,8.63
2022-12-23T07:03:31.720Z,6.93
2022-12-23T07:06:01.445Z,6.20
2022-12-23T07:08:28.951Z,5.90
2022-12-23T07:11:03.837Z,5.90
2022-12-23T07:13:32.350Z,7.60
2022-12-23T07:16:05.301Z,8.10
2022-12-23T07:18:33.042Z,9.50
2022-12-23T07:21:01.280Z,4.95
2022-12-23T07:23:30.894Z,6.97
2022-12-23T07:26:02.232Z,5.28
2022-12-23T07:28:29.850Z,6.10
2022-12-23T07:30:57.192Z,7.70
2022-12-23T07:33:24.680Z,8.73
2022-12-23T07:35:52.039Z,10.00
2022-12-23T07:38:22.048Z,12.15
2022-12-23T07:40:53.804Z,8.30
2022-12-23T07:43:24.174Z,9.43
2022-12-23T07:45:57.361Z,7.53
2022-12-23T07:48:27.640Z,7.00
2022-12-23T07:51:03.816Z,7.03
2022-12-23T07:53:31.788Z,7.95
2022-12-23T07:56:01.227Z,7.60
2022-12-23T07:58:28.867Z,6.70
2022-12-23T08:01:03.716Z,6.25
2022-12-23T08:03:31.700Z,6.82
2022-12-23T08:06:08.427Z,5.35
2022-12-23T08:08:37.307Z,6.32
2022-12-23T08:11:06.736Z,6.50
2022-12-23T08:13:41.441Z,5.68
2022-12-23T08:16:09.822Z,4.93
2022-12-23T08:18:40.536Z,8.32
2022-12-23T08:21:18.628Z,6.93
2022-12-23T08:23:47.216Z,6.60
2022-12-23T08:26:20.765Z,4.55
2022-12-23T08:28:49.349Z,5.18
2022-12-23T08:31:28.877Z,4.53
2022-12-23T08:33:58.196Z,4.60
2022-12-23T08:36:31.745Z,3.22
2022-12-23T08:39:02.949Z,5.45
2022-12-23T08:41:33.300Z,6.18
2022-12-23T08:44:01.031Z,5.95
2022-12-23T08:46:30.783Z,5.72
2022-12-23T08:48:58.434Z,7.65
2022-12-23T08:51:27.016Z,5.82
2022-12-23T08:54:00.406Z,5.50
2022-12-23T08:56:34.296Z,6.28
2022-12-23T08:59:02.715Z,6.32
2022-12-23T09:01:32.809Z,6.68
2022-12-23T09:04:05.107Z,3.63
2022-12-23T09:06:38.918Z,2.85
2022-12-23T09:09:07.237Z,4.15
2022-12-23T09:11:34.926Z,6.15
2022-12-23T09:14:06.589Z,4.13
2022-12-23T09:16:34.042Z,2.50
2022-12-23T09:19:04.545Z,3.50
2022-12-23T09:21:31.689Z,4.60
2022-12-23T09:24:01.626Z,5.80
2022-12-23T09:26:31.541Z,3.42
2022-12-23T09:28:59.480Z,3.40
2022-12-23T09:31:32.251Z,4.65
2022-12-23T09:34:03.777Z,3.90
2022-12-23T09:36:30.984Z,6.47
2022-12-23T09:38:59.331Z,2.72
2022-12-23T09:41:32.411Z,4.55
2022-12-23T09:44:18.309Z,3.50
2022-12-23T09:46:54.019Z,4.18
2022-12-23T09:49:24.735Z,3.67
2022-12-23T09:51:54.000Z,3.83
2022-12-23T09:54:25.751Z,4.22
2022-12-23T09:57:11.649Z,4.35
2022-12-23T10:00:05.816Z,5.35
2022-12-23T10:03:00.486Z,6.38
2022-12-23T10:05:47.277Z,8.93
2022-12-23T10:08:22.047Z,12.48
2022-12-23T10:10:56.659Z,13.05
2022-12-23T10:13:39.404Z,12.38
2022-12-23T10:16:23.330Z,10.30
2022-12-23T10:18:53.777Z,12.15
2022-12-23T10:21:32.445Z,12.00
2022-12-23T10:24:06.182Z,11.48
2022-12-23T10:26:48.976Z,13.00
2022-12-23T10:29:22.226Z,10.02
2022-12-23T10:31:52.991Z,6.20
2022-12-23T10:34:29.968Z,5.78
2022-12-23T10:37:09.126Z,3.47
2022-12-23T10:40:12.793Z,4.35
2022-12-23T10:42:52.504Z,4.10
2022-12-23T10:45:37.867Z,4.13
2022-12-23T10:48:29.093Z,5.28
2022-12-23T10:51:03.763Z,4.25
2022-12-23T10:53:47.075Z,6.63
2022-12-23T10:56:18.697Z,9.38
2022-12-23T10:58:52.989Z,4.22
2022-12-23T11:01:26.735Z,5.43
2022-12-23T11:04:01.128Z,3.17
2022-12-23T11:06:35.007Z,4.45
2022-12-23T11:09:07.001Z,4.30
2022-12-23T11:11:53.616Z,8.60
2022-12-23T11:14:37.501Z,8.55
2022-12-23T11:17:06.869Z,13.25
2022-12-23T11:19:36.543Z,11.68
2022-12-23T11:22:03.694Z,11.05
2022-12-23T11:24:31.638Z,11.48
2022-12-23T11:27:11.521Z,8.80
2022-12-23T11:29:46.913Z,10.75
2022-12-23T11:32:35.484Z,10.82
2022-12-23T11:35:03.277Z,12.43
2022-12-23T11:37:37.368Z,11.52
2022-12-23T11:40:11.830Z,7.50
2022-12-23T11:42:41.678Z,4.78
2022-12-23T11:45:09.529Z,4.93
2022-12-23T11:47:41.672Z,3.60
2022-12-23T11:50:33.745Z,4.90
2022-12-23T11:53:08.949Z,4.40
2022-12-23T11:55:39.656Z,4.78
2022-12-23T11:58:18.512Z,5.25
2022-12-23T12:00:55.886Z,6.20
2022-12-23T12:03:28.813Z,5.47
2022-12-23T12:06:00.810Z,6.30
2022-12-23T12:08:41.239Z,8.15
2022-12-23T12:11:17.076Z,6.88
2022-12-23T12:13:57.408Z,7.82
2022-12-23T12:16:31.074Z,5.28
2022-12-23T12:21:35.199Z,6.40
2022-12-23T12:24:19.212Z,7.07
2022-12-23T12:26:57.051Z,4.88
2022-12-23T12:29:24.291Z,6.80
2022-12-23T12:31:55.106Z,6.18
2022-12-23T12:34:34.429Z,8.38
2022-12-23T12:37:26.161Z,7.60
2022-12-23T12:40:15.054Z,7.85
2022-12-23T12:42:51.772Z,6.03
2022-12-23T12:45:21.792Z,7.65
2022-12-23T12:48:20.463Z,10.85
2022-12-23T12:51:05.461Z,7.28
2022-12-23T12:53:35.496Z,6.28
2022-12-23T12:56:35.331Z,9.00
2022-12-23T12:59:04.012Z,10.43
2022-12-23T13:01:49.831Z,11.40
2022-12-23T13:04:40.375Z,9.85
2022-12-23T13:07:13.460Z,8.52
2022-12-23T13:12:14.872Z,6.95
2022-12-23T13:14:58.142Z,7.85
2022-12-23T13:17:28.675Z,8.18
2022-12-23T13:20:11.045Z,8.80
2022-12-23T13:22:38.780Z,9.15
2022-12-23T13:25:21.035Z,7.85
2022-12-23T13:27:58.061Z,8.27
2022-12-23T13:30:57.340Z,8.45
2022-12-23T13:33:53.753Z,7.97
2022-12-23T13:36:52.075Z,6.55
2022-12-23T13:39:47.510Z,7.60
2022-12-23T13:42:32.521Z,10.80
2022-12-23T13:45:01.065Z,17.58
2022-12-23T13:47:48.885Z,19.42
2022-12-23T13:50:34.529Z,14.13
2022-12-23T13:53:13.848Z,12.25
2022-12-23T13:56:03.010Z,10.50
2022-12-23T13:58:33.890Z,10.98
2022-12-23T14:01:09.634Z,11.20
2022-12-23T14:03:39.201Z,11.20
2022-12-23T14:06:26.541Z,13.45
2022-12-23T14:08:55.791Z,12.18
2022-12-23T14:11:28.463Z,12.98
2022-12-23T14:14:01.340Z,11.60
2022-12-23T14:16:56.217Z,12.88
2022-12-23T14:19:57.668Z,9.23
2022-12-23T14:22:36.979Z,7.05
2022-12-23T14:25:25.719Z,7.30
2022-12-23T14:28:13.782Z,7.00
2022-12-23T14:30:42.954Z,7.07
2022-12-23T14:33:19.066Z,6.72
2022-12-23T14:35:46.718Z,8.13
2022-12-23T14:38:16.710Z,8.20
2022-12-23T14:40:47.395Z,8.80
2022-12-23T14:43:23.710Z,7.22
2022-12-23T14:46:02.838Z,4.82
2022-12-23T14:48:36.905Z,6.50
2022-12-23T14:51:29.165Z,8.73
2022-12-23T14:53:59.165Z,9.00
2022-12-23T14:56:41.627Z,7.38
2022-12-23T14:59:30.410Z,9.18
2022-12-23T15:02:02.200Z,7.18
2022-12-23T15:04:46.533Z,6.85
2022-12-23T15:07:35.609Z,7.05
2022-12-23T15:10:07.047Z,8.35
2022-12-23T15:12:42.512Z,18.35
2022-12-23T15:15:22.292Z,9.98
2022-12-23T15:18:02.025Z,9.45
2022-12-23T15:20:35.963Z,10.77
2022-12-23T15:23:10.914Z,20.10
2022-12-23T15:25:53.959Z,14.00
2022-12-23T15:28:41.969Z,15.02
2022-12-23T15:31:45.577Z,16.63
2022-12-23T15:34:23.036Z,12.40
2022-12-23T15:36:52.923Z,15.07
2022-12-23T15:39:27.746Z,32.15
2022-12-23T15:41:58.062Z,19.02
2022-12-23T15:44:38.188Z,17.00
2022-12-23T15:47:25.038Z,15.10
2022-12-23T15:49:55.177Z,16.40
2022-12-23T15:52:23.219Z,14.30
2022-12-23T15:54:59.943Z,14.65
2022-12-23T15:57:31.199Z,16.35
2022-12-23T15:59:59.514Z,18.45
2022-12-23T16:05:32.560Z,23.63
2022-12-23T16:08:30.554Z,26.77
2022-12-23T16:11:20.888Z,24.20
2022-12-23T16:13:59.867Z,20.17
2022-12-23T16:16:30.885Z,19.88
2022-12-23T16:18:58.131Z,17.80
2022-12-23T16:21:30.407Z,15.77
2022-12-23T16:24:07.079Z,16.10
2022-12-23T16:26:43.557Z,18.13
2022-12-23T16:29:11.616Z,18.45
2022-12-23T16:31:42.867Z,21.40
2022-12-23T16:34:15.610Z,21.73
2022-12-23T16:36:43.048Z,21.92
2022-12-23T16:39:21.829Z,18.40
2022-12-23T16:41:50.131Z,19.17
2022-12-23T16:44:19.786Z,16.40
2022-12-23T16:46:51.321Z,19.15
2022-12-23T16:49:26.575Z,22.15
2022-12-23T16:51:57.364Z,17.70
2022-12-23T16:54:25.126Z,20.70
2022-12-23T16:56:52.459Z,28.30
2022-12-23T16:59:19.713Z,25.13
2022-12-23T17:01:49.003Z,22.88
2022-12-23T17:04:16.272Z,19.13
2022-12-23T17:06:45.493Z,18.63
2022-12-23T17:09:12.759Z,16.77
2022-12-23T17:11:47.742Z,14.25
2022-12-23T17:14:23.438Z,13.48
2022-12-23T17:16:51.935Z,12.20
2022-12-23T17:19:27.342Z,13.13
2022-12-23T17:21:59.919Z,13.52
2022-12-23T17:24:27.572Z,12.93
2022-12-23T17:26:55.870Z,12.52
2022-12-23T17:29:23.679Z,12.98
2022-12-23T17:31:51.831Z,16.23
2022-12-23T17:34:21.609Z,16.48
2022-12-23T17:36:50.799Z,15.90
2022-12-23T17:39:19.602Z,13.30
2022-12-23T17:41:49.606Z,17.00
2022-12-23T17:44:18.216Z,18.02
2022-12-23T17:46:46.754Z,19.42
2022-12-23T17:49:14.005Z,25.60
2022-12-23T17:51:42.577Z,28.02
2022-12-23T17:54:23.798Z,24.15
2022-12-23T17:56:53.817Z,23.25
2022-12-23T17:59:21.887Z,18.52
2022-12-23T18:01:49.606Z,18.40
2022-12-23T18:04:19.025Z,18.23
2022-12-23T18:06:48.971Z,16.85
2022-12-23T18:09:16.185Z,18.17
2022-12-23T18:11:45.582Z,19.10
2022-12-23T18:14:25.586Z,21.15
2022-12-23T18:16:55.567Z,21.90
2022-12-23T18:19:23.067Z,23.35
2022-12-23T18:21:51.299Z,22.80
2022-12-23T18:24:18.584Z,26.05
2022-12-23T18:26:46.573Z,22.13
2022-12-23T18:29:13.878Z,20.80
2022-12-23T18:31:52.114Z,20.65
2022-12-23T18:34:23.436Z,17.38
2022-12-23T18:36:50.939Z,21.65
2022-12-23T18:39:18.235Z,23.20
2022-12-23T18:41:48.563Z,29.55
2022-12-23T18:44:19.343Z,23.35
2022-12-23T18:46:53.621Z,26.38
2022-12-23T18:49:21.376Z,18.20
2022-12-23T18:51:51.141Z,19.83
2022-12-23T18:54:21.008Z,21.35
2022-12-23T18:56:48.515Z,21.17
2022-12-23T18:59:19.274Z,19.00
2022-12-23T19:01:50.293Z,21.85
2022-12-23T19:04:17.439Z,22.58
2022-12-23T19:06:45.310Z,20.25
2022-12-23T19:09:17.458Z,21.80
2022-12-23T19:11:50.347Z,23.05
2022-12-23T19:14:19.277Z,20.73
2022-12-23T19:16:51.949Z,20.83
2022-12-23T19:19:20.763Z,19.88
2022-12-23T19:21:51.096Z,20.00
2022-12-23T19:24:23.131Z,25.15
2022-12-23T19:26:50.805Z,23.52
2022-12-23T19:29:23.842Z,23.23
2022-12-23T19:31:54.205Z,26.55
2022-12-23T19:34:21.526Z,26.00
2022-12-23T19:36:50.907Z,25.88
2022-12-23T19:39:18.165Z,24.77
2022-12-23T19:41:53.842Z,22.45
2022-12-23T19:44:20.914Z,21.30
2022-12-23T19:46:51.238Z,21.80
2022-12-23T19:49:20.358Z,19.88
2022-12-23T19:51:50.609Z,19.40
2022-12-23T19:57:04.649Z,21.55
2022-12-23T19:59:32.069Z,23.45
2022-12-23T20:01:59.563Z,21.42
2022-12-23T20:04:26.671Z,19.73
2022-12-23T20:07:02.082Z,22.58
2022-12-23T20:09:29.245Z,22.10
2022-12-23T20:11:58.105Z,22.30
2022-12-23T20:14:27.808Z,23.40
2022-12-23T20:16:59.557Z,18.90
2022-12-23T20:19:26.788Z,19.40
2022-12-23T20:21:54.716Z,20.48
2022-12-23T20:24:21.977Z,22.02
2022-12-23T20:26:54.244Z,19.83
2022-12-23T20:29:23.728Z,20.00
2022-12-23T20:32:05.185Z,21.13
2022-12-23T20:34:39.498Z,17.67
2022-12-23T20:37:12.788Z,15.07
2022-12-23T20:39:45.193Z,16.08
2022-12-23T20:42:13.764Z,15.77
2022-12-23T20:44:40.923Z,14.70
2022-12-23T20:47:10.839Z,16.55
2022-12-23T20:49:40.337Z,15.05
2022-12-23T20:52:12.973Z,15.93
2022-12-23T20:54:42.733Z,12.77
2022-12-23T20:57:10.145Z,14.40
2022-12-23T20:59:37.413Z,15.13
2022-12-23T21:02:05.007Z,17.40
2022-12-23T21:04:35.162Z,16.40
2022-12-23T21:07:02.635Z,18.52
2022-12-23T21:09:30.074Z,13.98
2022-12-23T21:11:57.758Z,16.83
2022-12-23T21:14:27.818Z,16.05
2022-12-23T21:16:55.438Z,15.85
2022-12-23T21:19:26.555Z,16.40
2022-12-23T21:24:37.851Z,22.35
2022-12-23T21:27:06.736Z,20.80
2022-12-23T21:29:33.884Z,18.70
2022-12-23T21:32:01.529Z,19.23
2022-12-23T21:34:31.501Z,19.02
2022-12-23T21:36:58.988Z,19.75
2022-12-23T21:39:27.459Z,15.00
2022-12-23T21:41:57.735Z,16.15
2022-12-23T21:44:25.009Z,16.65
2022-12-23T21:46:52.745Z,16.95
2022-12-23T21:49:20.569Z,19.25
2022-12-23T21:51:53.114Z,16.50
2022-12-23T21:54:20.548Z,18.67
2022-12-23T21:56:53.644Z,17.50
2022-12-23T21:59:21.827Z,13.43
2022-12-23T22:01:51.614Z,12.95
2022-12-23T22:04:19.051Z,14.77
2022-12-23T22:06:49.115Z,13.43
2022-12-23T22:09:20.007Z,12.00
2022-12-23T22:11:50.008Z,10.55
2022-12-23T22:14:19.021Z,11.13
2022-12-23T22:16:49.025Z,11.32
2022-12-23T22:19:18.541Z,9.68
2022-12-23T22:21:46.024Z,11.90
2022-12-23T22:24:13.428Z,9.77
2022-12-23T22:26:43.300Z,10.63
2022-12-23T22:29:11.059Z,10.82
2022-12-23T22:31:45.513Z,9.05
2022-12-23T22:34:21.520Z,8.63
2022-12-23T22:36:50.048Z,9.32
2022-12-23T22:39:21.881Z,10.70
2022-12-23T22:41:51.203Z,11.07
2022-12-23T22:44:21.899Z,10.23
2022-12-23T22:46:49.863Z,12.30
2022-12-23T22:49:19.491Z,12.77
2022-12-23T22:51:49.311Z,12.15
2022-12-23T22:54:16.427Z,12.35
2022-12-23T22:56:44.594Z,14.30
2022-12-23T22:59:23.943Z,15.20
2022-12-23T23:01:54.399Z,12.68
2022-12-23T23:04:21.829Z,12.30
2022-12-23T23:06:49.400Z,13.63
2022-12-23T23:09:18.716Z,11.77
2022-12-23T23:11:46.695Z,11.10
2022-12-23T23:14:14.186Z,10.77
2022-12-23T23:16:42.059Z,9.55
2022-12-23T23:19:10.751Z,9.45
2022-12-23T23:21:38.300Z,8.80
2022-12-23T23:24:12.213Z,11.63
2022-12-23T23:26:39.873Z,8.32
2022-12-23T23:29:07.036Z,7.20
2022-12-23T23:31:44.704Z,7.55
2022-12-23T23:34:13.287Z,9.30
2022-12-23T23:36:41.514Z,8.80
2022-12-23T23:39:11.525Z,9.55
2022-12-23T23:41:39.349Z,8.77
2022-12-23T23:44:06.573Z,8.15
2022-12-23T23:46:38.012Z,8.05
2022-12-23T23:49:05.758Z,8.55
2022-12-23T23:51:35.575Z,7.60
2022-12-23T23:54:02.627Z,8.95
2022-12-23T23:56:37.506Z,10.13
2022-12-23T23:59:06.527Z,11.70
